sensor_id;sensor_type;location;lat;lon;timestamp;pressure;altitude;pressure_sealevel;temperature
71081;BMP180;58740;50.672;18.690;2024-01-11T00:00:00;100132.00;;;-8.20
71081;BMP180;58740;50.672;18.690;2024-01-11T00:02:35;100122.60;;;-8.20
71081;BMP180;58740;50.672;18.690;2024-01-11T00:05:10;100115.20;;;-8.20
71081;BMP180;58740;50.672;18.690;2024-01-11T00:07:44;100112.00;;;-8.22
71081;BMP180;58740;50.672;18.690;2024-01-11T00:10:17;100113.60;;;-8.30
71081;BMP180;58740;50.672;18.690;2024-01-11T00:12:50;100114.00;;;-8.30
71081;BMP180;58740;50.672;18.690;2024-01-11T00:15:23;100110.20;;;-8.40
71081;BMP180;58740;50.672;18.690;2024-01-11T00:17:57;100105.40;;;-8.40
71081;BMP180;58740;50.672;18.690;2024-01-11T00:20:30;100102.00;;;-8.46
71081;BMP180;58740;50.672;18.690;2024-01-11T00:23:04;100097.20;;;-8.48
71081;BMP180;58740;50.672;18.690;2024-01-11T00:25:37;100082.60;;;-8.40
71081;BMP180;58740;50.672;18.690;2024-01-11T00:28:10;100083.40;;;-8.40
71081;BMP180;58740;50.672;18.690;2024-01-11T00:30:43;100081.60;;;-8.38
71081;BMP180;58740;50.672;18.690;2024-01-11T00:33:17;100090.00;;;-8.40
71081;BMP180;58740;50.672;18.690;2024-01-11T00:35:50;100089.00;;;-8.50
71081;BMP180;58740;50.672;18.690;2024-01-11T00:38:23;100082.20;;;-8.50
71081;BMP180;58740;50.672;18.690;2024-01-11T00:40:57;100086.40;;;-8.50
71081;BMP180;58740;50.672;18.690;2024-01-11T00:43:30;100084.80;;;-8.50
71081;BMP180;58740;50.672;18.690;2024-01-11T00:46:03;100089.40;;;-8.46
71081;BMP180;58740;50.672;18.690;2024-01-11T00:48:37;100081.60;;;-8.50
71081;BMP180;58740;50.672;18.690;2024-01-11T00:51:10;100083.40;;;-8.52
71081;BMP180;58740;50.672;18.690;2024-01-11T00:53:43;100092.40;;;-8.60
71081;BMP180;58740;50.672;18.690;2024-01-11T00:56:20;100085.60;;;-8.60
71081;BMP180;58740;50.672;18.690;2024-01-11T00:58:54;100080.40;;;-8.62
71081;BMP180;58740;50.672;18.690;2024-01-11T01:01:27;100073.00;;;-8.62
71081;BMP180;58740;50.672;18.690;2024-01-11T01:04:01;100068.40;;;-8.62
71081;BMP180;58740;50.672;18.690;2024-01-11T01:06:34;100065.00;;;-8.66
71081;BMP180;58740;50.672;18.690;2024-01-11T01:09:08;100058.20;;;-8.64
71081;BMP180;58740;50.672;18.690;2024-01-11T01:11:41;100062.60;;;-8.70
71081;BMP180;58740;50.672;18.690;2024-01-11T01:14:14;100056.20;;;-8.70
71081;BMP180;58740;50.672;18.690;2024-01-11T01:16:48;100054.40;;;-8.70
71081;BMP180;58740;50.672;18.690;2024-01-11T01:19:21;100051.80;;;-8.70
71081;BMP180;58740;50.672;18.690;2024-01-11T01:21:54;100047.00;;;-8.70
71081;BMP180;58740;50.672;18.690;2024-01-11T01:24:27;100047.00;;;-8.60
71081;BMP180;58740;50.672;18.690;2024-01-11T01:27:01;100040.60;;;-8.68
71081;BMP180;58740;50.672;18.690;2024-01-11T01:29:34;100031.60;;;-8.70
71081;BMP180;58740;50.672;18.690;2024-01-11T01:32:08;100027.80;;;-8.70
71081;BMP180;58740;50.672;18.690;2024-01-11T01:34:41;100020.80;;;-8.70
71081;BMP180;58740;50.672;18.690;2024-01-11T01:37:17;100020.80;;;-8.70
71081;BMP180;58740;50.672;18.690;2024-01-11T01:39:52;100025.20;;;-8.70
71081;BMP180;58740;50.672;18.690;2024-01-11T01:42:25;100015.80;;;-8.70
71081;BMP180;58740;50.672;18.690;2024-01-11T01:44:58;100022.80;;;-8.70
71081;BMP180;58740;50.672;18.690;2024-01-11T01:47:32;100008.60;;;-8.74
71081;BMP180;58740;50.672;18.690;2024-01-11T01:50:07;100017.20;;;-8.80
71081;BMP180;58740;50.672;18.690;2024-01-11T01:52:44;100022.40;;;-8.74
71081;BMP180;58740;50.672;18.690;2024-01-11T01:55:17;100019.00;;;-8.70
71081;BMP180;58740;50.672;18.690;2024-01-11T01:57:53;100010.00;;;-8.60
71081;BMP180;58740;50.672;18.690;2024-01-11T02:00:27;100018.00;;;-8.60
71081;BMP180;58740;50.672;18.690;2024-01-11T02:03:01;100020.40;;;-8.60
71081;BMP180;58740;50.672;18.690;2024-01-11T02:05:35;100029.40;;;-8.70
71081;BMP180;58740;50.672;18.690;2024-01-11T02:08:12;100038.60;;;-8.70
71081;BMP180;58740;50.672;18.690;2024-01-11T02:10:46;100036.60;;;-8.70
71081;BMP180;58740;50.672;18.690;2024-01-11T02:13:20;100039.80;;;-8.70
71081;BMP180;58740;50.672;18.690;2024-01-11T02:15:53;100048.00;;;-8.74
71081;BMP180;58740;50.672;18.690;2024-01-11T02:18:27;100047.60;;;-8.76
71081;BMP180;58740;50.672;18.690;2024-01-11T02:21:00;100054.40;;;-8.70
71081;BMP180;58740;50.672;18.690;2024-01-11T02:23:44;100050.60;;;-8.60
71081;BMP180;58740;50.672;18.690;2024-01-11T02:26:20;100050.80;;;-8.60
71081;BMP180;58740;50.672;18.690;2024-01-11T02:28:54;100042.00;;;-8.52
71081;BMP180;58740;50.672;18.690;2024-01-11T02:31:28;100034.60;;;-8.60
71081;BMP180;58740;50.672;18.690;2024-01-11T02:34:02;100037.00;;;-8.70
71081;BMP180;58740;50.672;18.690;2024-01-11T02:36:35;100040.00;;;-8.70
71081;BMP180;58740;50.672;18.690;2024-01-11T02:39:09;100033.40;;;-8.70
71081;BMP180;58740;50.672;18.690;2024-01-11T02:41:43;100044.00;;;-8.70
71081;BMP180;58740;50.672;18.690;2024-01-11T02:44:17;100042.60;;;-8.78
71081;BMP180;58740;50.672;18.690;2024-01-11T02:46:50;100014.20;;;-8.70
71081;BMP180;58740;50.672;18.690;2024-01-11T02:49:23;100013.80;;;-8.70
71081;BMP180;58740;50.672;18.690;2024-01-11T02:51:57;100011.20;;;-8.70
71081;BMP180;58740;50.672;18.690;2024-01-11T02:54:30;100008.40;;;-8.70
71081;BMP180;58740;50.672;18.690;2024-01-11T02:57:04;100016.40;;;-8.80
71081;BMP180;58740;50.672;18.690;2024-01-11T02:59:39;100001.20;;;-8.80
71081;BMP180;58740;50.672;18.690;2024-01-11T03:02:13;99985.80;;;-8.72
71081;BMP180;58740;50.672;18.690;2024-01-11T03:04:46;99978.80;;;-8.70
71081;BMP180;58740;50.672;18.690;2024-01-11T03:07:19;99977.60;;;-8.70
71081;BMP180;58740;50.672;18.690;2024-01-11T03:09:52;99959.60;;;-8.70
71081;BMP180;58740;50.672;18.690;2024-01-11T03:12:25;99975.80;;;-8.62
71081;BMP180;58740;50.672;18.690;2024-01-11T03:14:59;99989.60;;;-8.64
71081;BMP180;58740;50.672;18.690;2024-01-11T03:17:32;99997.40;;;-8.66
71081;BMP180;58740;50.672;18.690;2024-01-11T03:20:08;99998.00;;;-8.62
71081;BMP180;58740;50.672;18.690;2024-01-11T03:22:48;99997.20;;;-8.62
71081;BMP180;58740;50.672;18.690;2024-01-11T03:25:21;99982.40;;;-8.60
71081;BMP180;58740;50.672;18.690;2024-01-11T03:27:54;99990.40;;;-8.60
71081;BMP180;58740;50.672;18.690;2024-01-11T03:30:28;99985.20;;;-8.58
71081;BMP180;58740;50.672;18.690;2024-01-11T03:33:01;99981.40;;;-8.60
71081;BMP180;58740;50.672;18.690;2024-01-11T03:35:34;99963.00;;;-8.60
71081;BMP180;58740;50.672;18.690;2024-01-11T03:38:11;99955.00;;;-8.60
71081;BMP180;58740;50.672;18.690;2024-01-11T03:40:44;99964.20;;;-8.60
71081;BMP180;58740;50.672;18.690;2024-01-11T03:43:19;99960.20;;;-8.60
71081;BMP180;58740;50.672;18.690;2024-01-11T03:45:53;99954.60;;;-8.60
71081;BMP180;58740;50.672;18.690;2024-01-11T03:48:26;99952.00;;;-8.60
71081;BMP180;58740;50.672;18.690;2024-01-11T03:51:00;99950.00;;;-8.60
71081;BMP180;58740;50.672;18.690;2024-01-11T03:53:36;99953.00;;;-8.56
71081;BMP180;58740;50.672;18.690;2024-01-11T03:56:10;99954.40;;;-8.52
71081;BMP180;58740;50.672;18.690;2024-01-11T03:58:44;99952.40;;;-8.50
71081;BMP180;58740;50.672;18.690;2024-01-11T04:01:18;99964.40;;;-8.50
71081;BMP180;58740;50.672;18.690;2024-01-11T04:03:51;99974.60;;;-8.42
71081;BMP180;58740;50.672;18.690;2024-01-11T04:06:25;99976.60;;;-8.40
71081;BMP180;58740;50.672;18.690;2024-01-11T04:08:58;99978.20;;;-8.40
71081;BMP180;58740;50.672;18.690;2024-01-11T04:11:32;99977.60;;;-8.40
71081;BMP180;58740;50.672;18.690;2024-01-11T04:14:05;99984.60;;;-8.42
71081;BMP180;58740;50.672;18.690;2024-01-11T04:16:42;99980.40;;;-8.40
71081;BMP180;58740;50.672;18.690;2024-01-11T04:19:16;99977.20;;;-8.40
71081;BMP180;58740;50.672;18.690;2024-01-11T04:21:54;99968.00;;;-8.48
71081;BMP180;58740;50.672;18.690;2024-01-11T04:24:27;99965.80;;;-8.40
71081;BMP180;58740;50.672;18.690;2024-01-11T04:27:00;99958.40;;;-8.46
71081;BMP180;58740;50.672;18.690;2024-01-11T04:29:33;99960.20;;;-8.50
71081;BMP180;58740;50.672;18.690;2024-01-11T04:32:07;99961.80;;;-8.40
71081;BMP180;58740;50.672;18.690;2024-01-11T04:34:41;99962.80;;;-8.40
71081;BMP180;58740;50.672;18.690;2024-01-11T04:37:14;99959.20;;;-8.40
71081;BMP180;58740;50.672;18.690;2024-01-11T04:39:47;99941.00;;;-8.40
71081;BMP180;58740;50.672;18.690;2024-01-11T04:42:20;99929.00;;;-8.40
71081;BMP180;58740;50.672;18.690;2024-01-11T04:44:54;99931.20;;;-8.40
71081;BMP180;58740;50.672;18.690;2024-01-11T04:47:27;99941.20;;;-8.30
71081;BMP180;58740;50.672;18.690;2024-01-11T04:50:18;99934.40;;;-8.30
71081;BMP180;58740;50.672;18.690;2024-01-11T04:52:54;99938.20;;;-8.30
71081;BMP180;58740;50.672;18.690;2024-01-11T04:55:27;99941.80;;;-8.30
71081;BMP180;58740;50.672;18.690;2024-01-11T04:58:00;99934.40;;;-8.30
71081;BMP180;58740;50.672;18.690;2024-01-11T05:00:33;99925.60;;;-8.20
71081;BMP180;58740;50.672;18.690;2024-01-11T05:03:07;99923.20;;;-8.20
71081;BMP180;58740;50.672;18.690;2024-01-11T05:05:40;99923.40;;;-8.20
71081;BMP180;58740;50.672;18.690;2024-01-11T05:08:14;99921.80;;;-8.22
71081;BMP180;58740;50.672;18.690;2024-01-11T05:10:47;99915.80;;;-8.22
71081;BMP180;58740;50.672;18.690;2024-01-11T05:13:21;99927.80;;;-8.20
71081;BMP180;58740;50.672;18.690;2024-01-11T05:15:54;99916.00;;;-8.20
71081;BMP180;58740;50.672;18.690;2024-01-11T05:18:27;99916.20;;;-8.26
71081;BMP180;58740;50.672;18.690;2024-01-11T05:21:06;99911.00;;;-8.28
71081;BMP180;58740;50.672;18.690;2024-01-11T05:23:39;99895.00;;;-8.30
71081;BMP180;58740;50.672;18.690;2024-01-11T05:26:15;99883.20;;;-8.30
71081;BMP180;58740;50.672;18.690;2024-01-11T05:28:48;99888.60;;;-8.30
71081;BMP180;58740;50.672;18.690;2024-01-11T05:31:22;99903.00;;;-8.30
71081;BMP180;58740;50.672;18.690;2024-01-11T05:33:55;99903.80;;;-8.26
71081;BMP180;58740;50.672;18.690;2024-01-11T05:36:29;99904.80;;;-8.26
71081;BMP180;58740;50.672;18.690;2024-01-11T05:39:04;99892.40;;;-8.22
71081;BMP180;58740;50.672;18.690;2024-01-11T05:41:37;99886.40;;;-8.20
71081;BMP180;58740;50.672;18.690;2024-01-11T05:44:11;99882.80;;;-8.16
71081;BMP180;58740;50.672;18.690;2024-01-11T05:46:44;99889.00;;;-8.14
71081;BMP180;58740;50.672;18.690;2024-01-11T05:49:17;99896.40;;;-8.14
71081;BMP180;58740;50.672;18.690;2024-01-11T05:51:50;99898.80;;;-8.12
71081;BMP180;58740;50.672;18.690;2024-01-11T05:54:23;99900.40;;;-8.10
71081;BMP180;58740;50.672;18.690;2024-01-11T05:57:00;99903.20;;;-8.10
71081;BMP180;58740;50.672;18.690;2024-01-11T05:59:33;99890.20;;;-8.10
71081;BMP180;58740;50.672;18.690;2024-01-11T06:02:06;99886.40;;;-8.00
71081;BMP180;58740;50.672;18.690;2024-01-11T06:04:40;99871.00;;;-8.00
71081;BMP180;58740;50.672;18.690;2024-01-11T06:07:13;99870.40;;;-8.00
71081;BMP180;58740;50.672;18.690;2024-01-11T06:09:46;99870.00;;;-8.00
71081;BMP180;58740;50.672;18.690;2024-01-11T06:12:19;99859.20;;;-8.00
71081;BMP180;58740;50.672;18.690;2024-01-11T06:14:53;99847.00;;;-8.02
71081;BMP180;58740;50.672;18.690;2024-01-11T06:17:26;99842.80;;;-8.10
71081;BMP180;58740;50.672;18.690;2024-01-11T06:19:59;99833.40;;;-8.10
71081;BMP180;58740;50.672;18.690;2024-01-11T06:22:33;99833.20;;;-8.10
71081;BMP180;58740;50.672;18.690;2024-01-11T06:25:07;99843.40;;;-8.10
71081;BMP180;58740;50.672;18.690;2024-01-11T06:27:43;99842.20;;;-8.10
71081;BMP180;58740;50.672;18.690;2024-01-11T06:30:17;99831.60;;;-8.10
71081;BMP180;58740;50.672;18.690;2024-01-11T06:32:51;99827.40;;;-8.00
71081;BMP180;58740;50.672;18.690;2024-01-11T06:35:25;99839.40;;;-8.00
71081;BMP180;58740;50.672;18.690;2024-01-11T06:37:58;99840.00;;;-7.90
71081;BMP180;58740;50.672;18.690;2024-01-11T06:40:31;99851.60;;;-7.90
71081;BMP180;58740;50.672;18.690;2024-01-11T06:43:04;99837.40;;;-7.80
71081;BMP180;58740;50.672;18.690;2024-01-11T06:45:38;99838.80;;;-7.70
71081;BMP180;58740;50.672;18.690;2024-01-11T06:48:11;99824.20;;;-7.70
71081;BMP180;58740;50.672;18.690;2024-01-11T06:50:45;99836.20;;;-7.66
71081;BMP180;58740;50.672;18.690;2024-01-11T06:53:19;99821.20;;;-7.60
71081;BMP180;58740;50.672;18.690;2024-01-11T06:55:52;99821.00;;;-7.60
71081;BMP180;58740;50.672;18.690;2024-01-11T06:58:25;99819.20;;;-7.50
71081;BMP180;58740;50.672;18.690;2024-01-11T07:00:58;99814.20;;;-7.40
71081;BMP180;58740;50.672;18.690;2024-01-11T07:03:32;99822.60;;;-7.40
71081;BMP180;58740;50.672;18.690;2024-01-11T07:06:05;99824.40;;;-7.30
71081;BMP180;58740;50.672;18.690;2024-01-11T07:08:39;99812.20;;;-7.20
71081;BMP180;58740;50.672;18.690;2024-01-11T07:11:12;99824.20;;;-7.10
71081;BMP180;58740;50.672;18.690;2024-01-11T07:13:46;99834.20;;;-7.08
71081;BMP180;58740;50.672;18.690;2024-01-11T07:16:19;99830.40;;;-7.00
71081;BMP180;58740;50.672;18.690;2024-01-11T07:18:53;99817.80;;;-7.00
71081;BMP180;58740;50.672;18.690;2024-01-11T07:21:26;99809.20;;;-6.90
71081;BMP180;58740;50.672;18.690;2024-01-11T07:24:03;99799.20;;;-6.92
71081;BMP180;58740;50.672;18.690;2024-01-11T07:26:37;99788.80;;;-6.98
71081;BMP180;58740;50.672;18.690;2024-01-11T07:29:10;99792.00;;;-7.00
71081;BMP180;58740;50.672;18.690;2024-01-11T07:31:44;99779.40;;;-7.00
71081;BMP180;58740;50.672;18.690;2024-01-11T07:34:17;99768.60;;;-7.00
71081;BMP180;58740;50.672;18.690;2024-01-11T07:36:51;99767.40;;;-6.98
71081;BMP180;58740;50.672;18.690;2024-01-11T07:39:25;99766.20;;;-6.92
71081;BMP180;58740;50.672;18.690;2024-01-11T07:41:59;99772.20;;;-6.90
71081;BMP180;58740;50.672;18.690;2024-01-11T07:44:32;99777.60;;;-6.82
71081;BMP180;58740;50.672;18.690;2024-01-11T07:47:06;99770.40;;;-6.78
71081;BMP180;58740;50.672;18.690;2024-01-11T07:49:39;99769.60;;;-6.70
71081;BMP180;58740;50.672;18.690;2024-01-11T07:52:13;99766.20;;;-6.60
71081;BMP180;58740;50.672;18.690;2024-01-11T07:54:50;99754.00;;;-6.50
71081;BMP180;58740;50.672;18.690;2024-01-11T07:57:23;99753.40;;;-6.42
71081;BMP180;58740;50.672;18.690;2024-01-11T07:59:56;99747.20;;;-6.32
71081;BMP180;58740;50.672;18.690;2024-01-11T08:02:31;99745.20;;;-6.26
71081;BMP180;58740;50.672;18.690;2024-01-11T08:05:05;99752.80;;;-6.20
71081;BMP180;58740;50.672;18.690;2024-01-11T08:07:39;99749.60;;;-6.10
71081;BMP180;58740;50.672;18.690;2024-01-11T08:10:14;99749.00;;;-6.00
71081;BMP180;58740;50.672;18.690;2024-01-11T08:12:47;99730.40;;;-6.00
71081;BMP180;58740;50.672;18.690;2024-01-11T08:15:20;99739.40;;;-5.94
71081;BMP180;58740;50.672;18.690;2024-01-11T08:17:54;99739.40;;;-5.90
71081;BMP180;58740;50.672;18.690;2024-01-11T08:20:28;99743.60;;;-5.90
71081;BMP180;58740;50.672;18.690;2024-01-11T08:23:01;99749.60;;;-5.90
71081;BMP180;58740;50.672;18.690;2024-01-11T08:25:35;99755.00;;;-5.90
71081;BMP180;58740;50.672;18.690;2024-01-11T08:28:09;99756.80;;;-5.90
71081;BMP180;58740;50.672;18.690;2024-01-11T08:30:42;99751.60;;;-5.90
71081;BMP180;58740;50.672;18.690;2024-01-11T08:33:16;99738.60;;;-5.96
71081;BMP180;58740;50.672;18.690;2024-01-11T08:35:50;99731.80;;;-6.00
71081;BMP180;58740;50.672;18.690;2024-01-11T08:38:23;99741.00;;;-6.00
71081;BMP180;58740;50.672;18.690;2024-01-11T08:40:57;99745.60;;;-6.00
71081;BMP180;58740;50.672;18.690;2024-01-11T08:43:32;99743.20;;;-6.00
71081;BMP180;58740;50.672;18.690;2024-01-11T08:46:05;99749.20;;;-6.00
71081;BMP180;58740;50.672;18.690;2024-01-11T08:48:38;99754.40;;;-5.90
71081;BMP180;58740;50.672;18.690;2024-01-11T08:51:12;99752.80;;;-5.88
71081;BMP180;58740;50.672;18.690;2024-01-11T08:53:45;99756.60;;;-5.70
71081;BMP180;58740;50.672;18.690;2024-01-11T08:56:18;99766.60;;;-5.62
71081;BMP180;58740;50.672;18.690;2024-01-11T08:58:52;99753.20;;;-5.50
71081;BMP180;58740;50.672;18.690;2024-01-11T09:01:25;99756.00;;;-5.40
71081;BMP180;58740;50.672;18.690;2024-01-11T09:03:58;99748.60;;;-5.30
71081;BMP180;58740;50.672;18.690;2024-01-11T09:06:31;99751.20;;;-5.20
71081;BMP180;58740;50.672;18.690;2024-01-11T09:09:06;99748.60;;;-5.10
71081;BMP180;58740;50.672;18.690;2024-01-11T09:11:42;99746.20;;;-5.10
71081;BMP180;58740;50.672;18.690;2024-01-11T09:14:15;99738.20;;;-5.00
71081;BMP180;58740;50.672;18.690;2024-01-11T09:16:49;99740.20;;;-5.00
71081;BMP180;58740;50.672;18.690;2024-01-11T09:19:22;99739.20;;;-5.00
71081;BMP180;58740;50.672;18.690;2024-01-11T09:21:55;99732.40;;;-5.00
71081;BMP180;58740;50.672;18.690;2024-01-11T09:24:29;99731.00;;;-5.00
71081;BMP180;58740;50.672;18.690;2024-01-11T09:27:08;99732.20;;;-5.10
71081;BMP180;58740;50.672;18.690;2024-01-11T09:29:46;99736.00;;;-5.10
71081;BMP180;58740;50.672;18.690;2024-01-11T09:32:22;99745.60;;;-5.10
71081;BMP180;58740;50.672;18.690;2024-01-11T09:34:55;99734.40;;;-5.12
71081;BMP180;58740;50.672;18.690;2024-01-11T09:37:29;99742.60;;;-5.18
71081;BMP180;58740;50.672;18.690;2024-01-11T09:40:04;99732.00;;;-5.20
71081;BMP180;58740;50.672;18.690;2024-01-11T09:42:42;99719.60;;;-5.20
71081;BMP180;58740;50.672;18.690;2024-01-11T09:45:17;99721.80;;;-5.20
71081;BMP180;58740;50.672;18.690;2024-01-11T09:47:52;99721.60;;;-5.20
71081;BMP180;58740;50.672;18.690;2024-01-11T09:50:27;99708.60;;;-5.18
71081;BMP180;58740;50.672;18.690;2024-01-11T09:53:04;99717.60;;;-5.10
71081;BMP180;58740;50.672;18.690;2024-01-11T09:55:37;99715.40;;;-5.00
71081;BMP180;58740;50.672;18.690;2024-01-11T09:58:12;99714.60;;;-4.90
71081;BMP180;58740;50.672;18.690;2024-01-11T10:00:47;99700.20;;;-4.80
71081;BMP180;58740;50.672;18.690;2024-01-11T10:03:24;99701.20;;;-4.70
71081;BMP180;58740;50.672;18.690;2024-01-11T10:06:02;99696.40;;;-4.60
71081;BMP180;58740;50.672;18.690;2024-01-11T10:08:35;99692.60;;;-4.56
71081;BMP180;58740;50.672;18.690;2024-01-11T10:11:09;99682.80;;;-4.50
71081;BMP180;58740;50.672;18.690;2024-01-11T10:13:43;99673.40;;;-4.40
71081;BMP180;58740;50.672;18.690;2024-01-11T10:16:17;99677.60;;;-4.40
71081;BMP180;58740;50.672;18.690;2024-01-11T10:18:51;99691.80;;;-4.40
71081;BMP180;58740;50.672;18.690;2024-01-11T10:21:28;99698.00;;;-4.40
71081;BMP180;58740;50.672;18.690;2024-01-11T10:24:02;99682.60;;;-4.40
71081;BMP180;58740;50.672;18.690;2024-01-11T10:26:37;99680.40;;;-4.40
71081;BMP180;58740;50.672;18.690;2024-01-11T10:29:11;99692.40;;;-4.40
71081;BMP180;58740;50.672;18.690;2024-01-11T10:31:45;99689.60;;;-4.40
71081;BMP180;58740;50.672;18.690;2024-01-11T10:34:18;99698.00;;;-4.46
71081;BMP180;58740;50.672;18.690;2024-01-11T10:36:53;99708.40;;;-4.50
71081;BMP180;58740;50.672;18.690;2024-01-11T10:39:28;99698.00;;;-4.50
71081;BMP180;58740;50.672;18.690;2024-01-11T10:42:07;99682.00;;;-4.50
71081;BMP180;58740;50.672;18.690;2024-01-11T10:44:46;99680.40;;;-4.54
71081;BMP180;58740;50.672;18.690;2024-01-11T10:47:23;99676.20;;;-4.58
71081;BMP180;58740;50.672;18.690;2024-01-11T10:50:00;99677.20;;;-4.52
71081;BMP180;58740;50.672;18.690;2024-01-11T10:52:46;99662.40;;;-4.58
71081;BMP180;58740;50.672;18.690;2024-01-11T10:55:24;99669.20;;;-4.58
71081;BMP180;58740;50.672;18.690;2024-01-11T10:57:59;99670.00;;;-4.54
71081;BMP180;58740;50.672;18.690;2024-01-11T11:00:35;99673.20;;;-4.50
71081;BMP180;58740;50.672;18.690;2024-01-11T11:03:10;99671.40;;;-4.50
71081;BMP180;58740;50.672;18.690;2024-01-11T11:05:46;99665.80;;;-4.48
71081;BMP180;58740;50.672;18.690;2024-01-11T11:08:23;99666.60;;;-4.40
71081;BMP180;58740;50.672;18.690;2024-01-11T11:11:00;99663.80;;;-4.30
71081;BMP180;58740;50.672;18.690;2024-01-11T11:13:36;99657.60;;;-4.20
71081;BMP180;58740;50.672;18.690;2024-01-11T11:16:11;99657.60;;;-4.10
71081;BMP180;58740;50.672;18.690;2024-01-11T11:18:44;99649.60;;;-4.00
71081;BMP180;58740;50.672;18.690;2024-01-11T11:21:18;99648.20;;;-3.90
71081;BMP180;58740;50.672;18.690;2024-01-11T11:23:52;99629.40;;;-3.80
71081;BMP180;58740;50.672;18.690;2024-01-11T11:26:27;99624.00;;;-3.70
71081;BMP180;58740;50.672;18.690;2024-01-11T11:29:01;99608.40;;;-3.60
71081;BMP180;58740;50.672;18.690;2024-01-11T11:31:43;99616.40;;;-3.60
71081;BMP180;58740;50.672;18.690;2024-01-11T11:34:20;99612.00;;;-3.60
71081;BMP180;58740;50.672;18.690;2024-01-11T11:37:14;99618.40;;;-3.60
71081;BMP180;58740;50.672;18.690;2024-01-11T11:39:55;99620.80;;;-3.56
71081;BMP180;58740;50.672;18.690;2024-01-11T11:42:35;99614.20;;;-3.52
71081;BMP180;58740;50.672;18.690;2024-01-11T11:45:10;99614.60;;;-3.60
71081;BMP180;58740;50.672;18.690;2024-01-11T11:47:44;99610.80;;;-3.60
71081;BMP180;58740;50.672;18.690;2024-01-11T11:50:22;99616.40;;;-3.60
71081;BMP180;58740;50.672;18.690;2024-01-11T11:52:58;99613.80;;;-3.60
71081;BMP180;58740;50.672;18.690;2024-01-11T11:55:33;99601.80;;;-3.60
71081;BMP180;58740;50.672;18.690;2024-01-11T11:58:08;99610.00;;;-3.60
71081;BMP180;58740;50.672;18.690;2024-01-11T12:00:45;99613.80;;;-3.60
71081;BMP180;58740;50.672;18.690;2024-01-11T12:03:19;99614.40;;;-3.60
71081;BMP180;58740;50.672;18.690;2024-01-11T12:05:53;99614.80;;;-3.60
71081;BMP180;58740;50.672;18.690;2024-01-11T12:08:27;99608.20;;;-3.60
71081;BMP180;58740;50.672;18.690;2024-01-11T12:11:01;99617.80;;;-3.60
71081;BMP180;58740;50.672;18.690;2024-01-11T12:13:36;99615.80;;;-3.60
71081;BMP180;58740;50.672;18.690;2024-01-11T12:16:09;99614.40;;;-3.60
71081;BMP180;58740;50.672;18.690;2024-01-11T12:18:43;99616.80;;;-3.60
71081;BMP180;58740;50.672;18.690;2024-01-11T12:21:16;99611.20;;;-3.60
71081;BMP180;58740;50.672;18.690;2024-01-11T12:23:50;99597.80;;;-3.64
71081;BMP180;58740;50.672;18.690;2024-01-11T12:26:23;99594.40;;;-3.70
71081;BMP180;58740;50.672;18.690;2024-01-11T12:28:57;99592.20;;;-3.70
71081;BMP180;58740;50.672;18.690;2024-01-11T12:31:30;99588.40;;;-3.70
71081;BMP180;58740;50.672;18.690;2024-01-11T12:34:05;99573.40;;;-3.70
71081;BMP180;58740;50.672;18.690;2024-01-11T12:36:39;99573.00;;;-3.70
71081;BMP180;58740;50.672;18.690;2024-01-11T12:39:14;99574.00;;;-3.70
71081;BMP180;58740;50.672;18.690;2024-01-11T12:41:50;99576.60;;;-3.70
71081;BMP180;58740;50.672;18.690;2024-01-11T12:44:24;99572.20;;;-3.60
71081;BMP180;58740;50.672;18.690;2024-01-11T12:46:57;99575.60;;;-3.52
71081;BMP180;58740;50.672;18.690;2024-01-11T12:49:31;99573.00;;;-3.50
71081;BMP180;58740;50.672;18.690;2024-01-11T12:52:05;99565.80;;;-3.40
71081;BMP180;58740;50.672;18.690;2024-01-11T12:54:38;99559.40;;;-3.40
71081;BMP180;58740;50.672;18.690;2024-01-11T12:57:14;99545.60;;;-3.32
71081;BMP180;58740;50.672;18.690;2024-01-11T12:59:50;99534.60;;;-3.30
71081;BMP180;58740;50.672;18.690;2024-01-11T13:02:24;99541.40;;;-3.34
71081;BMP180;58740;50.672;18.690;2024-01-11T13:04:57;99540.20;;;-3.34
71081;BMP180;58740;50.672;18.690;2024-01-11T13:07:34;99534.60;;;-3.30
71081;BMP180;58740;50.672;18.690;2024-01-11T13:10:10;99545.80;;;-3.30
71081;BMP180;58740;50.672;18.690;2024-01-11T13:12:43;99537.20;;;-3.30
71081;BMP180;58740;50.672;18.690;2024-01-11T13:15:24;99541.00;;;-3.36
71081;BMP180;58740;50.672;18.690;2024-01-11T13:17:58;99549.20;;;-3.36
71081;BMP180;58740;50.672;18.690;2024-01-11T13:20:31;99561.60;;;-3.38
71081;BMP180;58740;50.672;18.690;2024-01-11T13:23:19;99565.80;;;-3.38
71081;BMP180;58740;50.672;18.690;2024-01-11T13:25:53;99551.40;;;-3.40
71081;BMP180;58740;50.672;18.690;2024-01-11T13:28:27;99549.60;;;-3.40
71081;BMP180;58740;50.672;18.690;2024-01-11T13:31:00;99542.40;;;-3.40
71081;BMP180;58740;50.672;18.690;2024-01-11T13:33:35;99536.20;;;-3.40
71081;BMP180;58740;50.672;18.690;2024-01-11T13:36:09;99537.60;;;-3.40
71081;BMP180;58740;50.672;18.690;2024-01-11T13:38:42;99541.80;;;-3.36
71081;BMP180;58740;50.672;18.690;2024-01-11T13:41:16;99544.60;;;-3.30
71081;BMP180;58740;50.672;18.690;2024-01-11T13:43:49;99544.40;;;-3.24
71081;BMP180;58740;50.672;18.690;2024-01-11T13:46:23;99536.60;;;-3.20
71081;BMP180;58740;50.672;18.690;2024-01-11T13:48:56;99537.60;;;-3.20
71081;BMP180;58740;50.672;18.690;2024-01-11T13:51:30;99540.80;;;-3.16
71081;BMP180;58740;50.672;18.690;2024-01-11T13:54:17;99537.40;;;-3.10
71081;BMP180;58740;50.672;18.690;2024-01-11T13:56:51;99541.60;;;-3.10
71081;BMP180;58740;50.672;18.690;2024-01-11T13:59:24;99537.00;;;-3.10
71081;BMP180;58740;50.672;18.690;2024-01-11T14:01:58;99532.40;;;-3.12
71081;BMP180;58740;50.672;18.690;2024-01-11T14:04:31;99533.60;;;-3.10
71081;BMP180;58740;50.672;18.690;2024-01-11T14:07:06;99538.20;;;-3.16
71081;BMP180;58740;50.672;18.690;2024-01-11T14:09:40;99540.20;;;-3.20
71081;BMP180;58740;50.672;18.690;2024-01-11T14:12:13;99533.80;;;-3.20
71081;BMP180;58740;50.672;18.690;2024-01-11T14:14:47;99536.80;;;-3.20
71081;BMP180;58740;50.672;18.690;2024-01-11T14:17:21;99539.80;;;-3.20
71081;BMP180;58740;50.672;18.690;2024-01-11T14:19:54;99541.20;;;-3.20
71081;BMP180;58740;50.672;18.690;2024-01-11T14:22:28;99545.20;;;-3.18
71081;BMP180;58740;50.672;18.690;2024-01-11T14:25:01;99548.00;;;-3.10
71081;BMP180;58740;50.672;18.690;2024-01-11T14:27:35;99544.40;;;-3.10
71081;BMP180;58740;50.672;18.690;2024-01-11T14:30:12;99553.80;;;-3.10
71081;BMP180;58740;50.672;18.690;2024-01-11T14:32:46;99561.60;;;-3.10